Time;durP1;ratioP1;P1;durP2;ratioP2;P2;SDS_P1;SDS_P2;PMS_P1;PMS_P2;Temp;Humidity;BMP_temperature;BMP_pressure;BME280_temperature;BME280_humidity;BME280_pressure;Samples;Min_cycle;Max_cycle;Signal;HPM_P1;HPM_P2
2021/10/31 00:01:13;;;;;;;68.50;45.33;;;;;;;13.09;74.67;101767.63;5029717;28;20052;-61
2021/10/31 00:03:40;;;;;;;64.68;44.08;;;;;;;13.07;74.51;101766.84;5031214;28;20493;-61
2021/10/31 00:06:07;;;;;;;68.25;45.47;;;;;;;13.07;74.58;101764.22;5031206;28;20049;-62
2021/10/31 00:08:34;;;;;;;69.60;46.85;;;;;;;13.05;74.49;101758.16;5031117;28;20053;-62
2021/10/31 00:11:02;;;;;;;71.03;45.65;;;;;;;13.05;74.52;101764.28;5031183;28;20103;-62
2021/10/31 00:13:30;;;;;;;66.22;44.83;;;;;;;13.07;74.39;101759.78;5031410;28;20095;-62
2021/10/31 00:15:56;;;;;;;70.53;46.58;;;;;;;13.06;74.56;101759.88;5031003;28;20482;-62
2021/10/31 00:18:24;;;;;;;67.90;45.47;;;;;;;13.05;74.57;101764.28;5030404;28;20049;-61
2021/10/31 00:20:50;;;;;;;67.15;45.00;;;;;;;13.01;74.50;101765.34;5030800;28;20057;-62
2021/10/31 00:23:17;;;;;;;66.78;46.20;;;;;;;13.05;74.56;101750.25;5030985;28;20049;-62
2021/10/31 00:25:44;;;;;;;68.57;46.05;;;;;;;13.05;74.67;101752.88;5030709;28;20445;-62
2021/10/31 00:28:10;;;;;;;71.07;45.88;;;;;;;13.03;74.66;101747.69;5030900;28;20091;-61
2021/10/31 00:30:37;;;;;;;66.57;45.20;;;;;;;13.02;74.73;101748.63;5030457;28;20107;-62
2021/10/31 00:33:04;;;;;;;66.30;44.22;;;;;;;13.02;74.73;101746.00;5031251;28;20136;-63
2021/10/31 00:35:30;;;;;;;68.60;45.47;;;;;;;13.01;74.63;101746.91;5030728;28;20498;-62
2021/10/31 00:37:57;;;;;;;68.50;45.42;;;;;;;13.04;74.76;101740.66;5030148;28;20486;-62
2021/10/31 00:40:24;;;;;;;65.95;43.70;;;;;;;13.02;74.67;101745.16;5030803;28;20453;-62
2021/10/31 00:42:50;;;;;;;66.10;44.80;;;;;;;13.00;74.78;101739.97;5030611;28;20061;-62
2021/10/31 00:45:17;;;;;;;69.65;45.35;;;;;;;13.00;74.75;101741.72;5030221;28;20437;-61
2021/10/31 00:47:43;;;;;;;62.80;43.55;;;;;;;13.00;74.81;101736.47;5030470;28;20049;-62
2021/10/31 00:50:10;;;;;;;69.50;43.92;;;;;;;12.99;74.82;101726.84;5030464;28;20053;-62
2021/10/31 00:52:37;;;;;;;68.15;44.85;;;;;;;12.97;75.01;101732.19;5030310;28;20046;-61
2021/10/31 00:55:05;;;;;;;66.53;43.95;;;;;;;12.93;74.95;101728.03;5029792;28;20103;-61
2021/10/31 00:57:32;;;;;;;62.33;42.47;;;;;;;12.95;75.03;101731.44;5030257;28;20107;-61
2021/10/31 00:59:59;;;;;;;63.35;42.40;;;;;;;12.97;75.02;101731.38;5030207;28;20457;-61
2021/10/31 01:02:26;;;;;;;64.13;43.22;;;;;;;12.97;74.74;101737.47;5030182;28;20049;-62
2021/10/31 01:05:01;;;;;;;65.90;42.95;;;;;;;12.93;74.99;101728.03;5029931;28;20120;-62
2021/10/31 01:07:52;;;;;;;59.92;40.80;;;;;;;12.91;75.03;101727.25;5030217;28;20053;-62
2021/10/31 01:10:40;;;;;;;65.00;41.92;;;;;;;12.92;74.89;101720.22;5030148;28;20046;-62
2021/10/31 01:13:07;;;;;;;63.22;41.17;;;;;;;12.92;74.85;101722.84;5028802;28;20057;-61
2021/10/31 01:15:49;;;;;;;58.83;40.85;;;;;;;12.94;74.76;101720.97;5029867;28;20072;-61
2021/10/31 01:18:30;;;;;;;61.03;41.80;;;;;;;12.93;74.85;101721.91;5029812;28;20494;-62
2021/10/31 01:21:12;;;;;;;62.97;42.13;;;;;;;12.93;75.00;101706.09;5029811;28;20115;-62
2021/10/31 01:24:02;;;;;;;62.17;41.97;;;;;;;12.92;74.73;101705.25;5029616;28;20498;-61
2021/10/31 01:27:01;;;;;;;64.93;41.83;;;;;;;12.90;74.83;101707.97;5029707;28;20057;-61
2021/10/31 01:29:44;;;;;;;62.25;40.92;;;;;;;12.92;75.18;101709.66;5028729;28;20091;-62
2021/10/31 01:32:38;;;;;;;66.95;42.35;;;;;;;12.93;74.93;101711.38;5029700;28;20123;-62
2021/10/31 01:35:41;;;;;;;61.42;41.28;;;;;;;12.88;75.01;101704.53;5029676;28;20103;-62
2021/10/31 01:38:10;;;;;;;62.05;42.08;;;;;;;12.86;75.07;101708.19;5029518;28;20053;-62
2021/10/31 01:40:46;;;;;;;62.28;40.47;;;;;;;12.84;75.04;101705.63;5029595;28;20045;-62
2021/10/31 01:43:31;;;;;;;64.20;42.20;;;;;;;12.86;75.07;101708.19;5029373;28;20132;-61
2021/10/31 01:46:15;;;;;;;64.45;41.47;;;;;;;12.81;75.00;101699.66;5028624;28;20406;-61
2021/10/31 01:49:01;;;;;;;64.45;41.90;;;;;;;12.80;75.07;101696.19;5029524;28;20551;-62
2021/10/31 01:51:35;;;;;;;64.05;41.80;;;;;;;12.80;75.13;101704.09;5029607;28;20049;-62
2021/10/31 01:54:05;;;;;;;63.15;42.45;;;;;;;12.79;75.15;101698.91;5029559;28;20046;-62
2021/10/31 01:56:36;;;;;;;62.25;41.88;;;;;;;12.77;75.13;101698.97;5029344;28;20042;-61
2021/10/31 01:59:14;;;;;;;61.20;41.30;;;;;;;12.77;75.22;101691.06;5028917;28;20483;-61
2021/10/31 02:01:43;;;;;;;61.25;42.42;;;;;;;12.76;75.25;101697.28;5029231;28;20154;-62
2021/10/31 02:04:13;;;;;;;60.60;40.92;;;;;;;12.74;75.13;101686.81;5029313;28;20391;-62
2021/10/31 02:06:43;;;;;;;66.82;42.13;;;;;;;12.74;75.26;101684.16;5028903;28;20107;-62
2021/10/31 02:09:14;;;;;;;61.72;42.28;;;;;;;12.73;75.31;101684.25;5028632;28;20050;-61
2021/10/31 02:11:42;;;;;;;64.82;43.25;;;;;;;12.77;75.27;101685.78;5029048;28;20688;-62
2021/10/31 02:14:10;;;;;;;62.53;41.55;;;;;;;12.75;75.20;101685.03;5028819;28;20103;-61
2021/10/31 02:16:37;;;;;;;64.82;41.75;;;;;;;12.72;75.32;101674.63;5028855;28;20096;-62
2021/10/31 02:19:08;;;;;;;64.90;43.80;;;;;;;12.74;75.38;101673.63;5029230;28;20133;-62
2021/10/31 02:21:37;;;;;;;66.72;42.85;;;;;;;12.71;75.37;101668.53;5029103;28;20103;-62
2021/10/31 02:24:07;;;;;;;63.45;42.75;;;;;;;12.72;75.35;101672.00;5028068;28;20045;-61
2021/10/31 02:26:37;;;;;;;62.53;42.55;;;;;;;12.69;75.41;101672.19;5029052;28;20049;-61
2021/10/31 02:29:08;;;;;;;66.97;42.92;;;;;;;12.73;75.56;101677.22;5028933;28;20054;-62
2021/10/31 02:31:36;;;;;;;65.45;43.85;;;;;;;12.71;75.44;101676.44;5029172;28;20045;-62
2021/10/31 02:34:07;;;;;;;66.53;43.25;;;;;;;12.72;75.52;101680.78;5029140;28;20053;-62
2021/10/31 02:36:35;;;;;;;67.05;43.03;;;;;;;12.73;75.44;101681.63;5029080;28;20103;-62
2021/10/31 02:39:04;;;;;;;69.25;43.97;;;;;;;12.72;75.18;101678.16;5029027;28;20103;-62
2021/10/31 02:41:32;;;;;;;68.13;44.63;;;;;;;12.71;75.60;101675.59;5028690;28;20057;-62
2021/10/31 02:44:00;;;;;;;73.35;44.35;;;;;;;12.68;75.64;101673.94;5028632;28;20050;-62
2021/10/31 02:46:33;;;;;;;62.65;43.20;;;;;;;12.67;75.83;101671.38;5028848;28;20494;-61
2021/10/31 02:49:01;;;;;;;68.93;44.92;;;;;;;12.66;75.53;101667.91;5027873;28;20099;-61
2021/10/31 02:51:39;;;;;;;66.45;44.30;;;;;;;12.66;75.76;101672.31;5028891;28;20096;-62
2021/10/31 02:54:31;;;;;;;68.28;44.83;;;;;;;12.66;75.83;101673.19;5029144;28;20056;-62
2021/10/31 02:57:11;;;;;;;68.75;44.40;;;;;;;12.71;75.41;101667.69;5031948;28;20048;-62
2021/10/31 02:59:47;;;;;;;69.22;45.05;;;;;;;12.70;75.42;101666.00;5032080;28;20041;-62
2021/10/31 03:02:15;;;;;;;66.25;43.50;;;;;;;12.72;75.47;101667.63;5031785;28;20099;-62
2021/10/31 03:04:43;;;;;;;68.85;44.00;;;;;;;12.72;75.25;101664.97;5031827;28;20107;-62
2021/10/31 03:07:11;;;;;;;73.32;44.78;;;;;;;12.69;75.54;101669.53;5032134;28;20049;-62
2021/10/31 03:09:38;;;;;;;67.72;44.97;;;;;;;12.65;75.74;101665.38;5030959;28;20049;-62
2021/10/31 03:12:09;;;;;;;72.60;44.67;;;;;;;12.63;75.59;101657.53;5031779;28;20413;-62
2021/10/31 03:14:36;;;;;;;72.32;46.85;;;;;;;12.62;75.56;101657.59;5031837;28;20564;-62
2021/10/31 03:17:03;;;;;;;73.40;46.42;;;;;;;12.63;75.64;101654.06;5031946;28;20526;-62
2021/10/31 03:19:31;;;;;;;71.50;45.38;;;;;;;12.61;75.78;101654.13;5031766;28;20490;-62
2021/10/31 03:21:59;;;;;;;63.42;43.55;;;;;;;12.65;75.63;101654.84;5031768;28;20057;-62
2021/10/31 03:24:26;;;;;;;64.80;43.40;;;;;;;12.60;75.64;101655.06;5031128;28;20092;-62
2021/10/31 03:26:52;;;;;;;65.68;45.13;;;;;;;12.58;75.78;101644.59;5031636;28;20452;-62
2021/10/31 03:29:21;;;;;;;67.53;43.58;;;;;;;12.62;75.70;101647.94;5031888;28;20092;-62
2021/10/31 03:31:48;;;;;;;68.85;44.88;;;;;;;12.62;75.56;101652.34;5031682;28;20490;-62
2021/10/31 03:34:15;;;;;;;63.55;42.10;;;;;;;12.63;75.80;101651.41;5031474;28;20136;-62
2021/10/31 03:36:42;;;;;;;66.32;44.10;;;;;;;12.65;75.31;101647.78;5033639;28;20045;-62
2021/10/31 03:39:09;;;;;;;63.38;43.30;;;;;;;12.64;75.77;101650.50;5035137;28;20041;-62
2021/10/31 03:41:36;;;;;;;65.30;43.80;;;;;;;12.65;75.57;101654.84;5034332;28;20140;-62
2021/10/31 03:44:03;;;;;;;68.97;44.08;;;;;;;12.65;75.61;101654.84;5035213;28;20052;-62
2021/10/31 03:46:31;;;;;;;62.53;42.42;;;;;;;12.64;75.61;101653.97;5034897;28;20091;-62
2021/10/31 03:48:58;;;;;;;66.82;44.65;;;;;;;12.63;75.27;101654.88;5035146;28;20045;-62
2021/10/31 03:51:25;;;;;;;69.03;43.53;;;;;;;12.63;75.68;101651.41;5035063;28;20049;-62
2021/10/31 03:53:51;;;;;;;63.13;42.50;;;;;;;12.61;75.71;101650.63;5034938;28;20049;-62
2021/10/31 03:56:18;;;;;;;66.35;43.95;;;;;;;12.61;75.79;101653.25;5034452;28;20076;-62
2021/10/31 03:58:44;;;;;;;63.92;43.55;;;;;;;12.63;75.84;101654.06;5034711;28;20045;-62
2021/10/31 04:01:11;;;;;;;64.50;43.97;;;;;;;12.64;75.82;101650.50;5034569;28;20103;-62
2021/10/31 04:03:38;;;;;;;69.45;46.15;;;;;;;12.64;75.85;101650.50;5030499;28;20038;-61
2021/10/31 04:06:04;;;;;;;71.60;46.75;;;;;;;12.64;75.59;101645.22;5031354;28;20448;-61
2021/10/31 04:08:31;;;;;;;75.35;46.72;;;;;;;12.63;75.69;101648.78;5031484;28;20077;-61
2021/10/31 04:10:58;;;;;;;74.40;46.17;;;;;;;12.61;75.77;101650.63;5031241;28;20460;-62
2021/10/31 04:13:25;;;;;;;75.28;45.60;;;;;;;12.61;75.64;101651.50;5030541;28;20494;-62
2021/10/31 04:15:52;;;;;;;76.13;47.58;;;;;;;12.61;75.72;101642.72;5031068;28;20053;-62
2021/10/31 04:18:19;;;;;;;78.45;47.22;;;;;;;12.60;75.80;101646.31;5031394;28;20045;-61
2021/10/31 04:20:45;;;;;;;79.75;48.17;;;;;;;12.60;75.80;101643.69;5030756;28;20564;-62
2021/10/31 04:23:12;;;;;;;81.03;50.28;;;;;;;12.56;75.92;101648.25;5029953;28;20049;-62
2021/10/31 04:25:39;;;;;;;81.85;48.92;;;;;;;12.57;75.97;101647.31;5030991;28;20115;-62
2021/10/31 04:28:05;;;;;;;78.07;50.33;;;;;;;12.54;75.96;101653.59;5030904;28;20486;-62
2021/10/31 04:30:32;;;;;;;82.57;49.00;;;;;;;12.55;75.92;101650.00;5030318;28;20096;-62
2021/10/31 04:32:59;;;;;;;76.88;49.15;;;;;;;12.54;75.95;101652.72;5031163;28;20053;-62
2021/10/31 04:35:25;;;;;;;80.70;50.40;;;;;;;12.51;76.10;101645.00;5030745;28;20085;-61
2021/10/31 04:37:55;;;;;;;86.88;50.78;;;;;;;12.53;76.03;101645.75;5030574;28;20053;-62
2021/10/31 04:40:23;;;;;;;79.70;48.33;;;;;;;12.50;76.12;101640.66;5030946;28;20053;-62
2021/10/31 04:42:53;;;;;;;82.75;51.33;;;;;;;12.50;76.23;101630.97;5030355;28;20457;-62
2021/10/31 04:45:20;;;;;;;80.15;49.80;;;;;;;12.49;76.27;101639.78;5030763;28;20049;-62
2021/10/31 04:47:46;;;;;;;79.95;49.60;;;;;;;12.48;76.14;101634.59;5030047;28;20103;-62
2021/10/31 04:50:13;;;;;;;85.05;51.08;;;;;;;12.45;75.98;101632.97;5030684;28;20053;-62
2021/10/31 04:52:42;;;;;;;78.20;50.47;;;;;;;12.43;76.39;101631.34;5030215;28;20449;-62
2021/10/31 04:55:10;;;;;;;82.85;50.92;;;;;;;12.45;76.33;101626.88;5030431;28;20085;-62
2021/10/31 04:57:37;;;;;;;81.32;50.53;;;;;;;12.44;76.37;101619.91;5029623;28;20128;-62
2021/10/31 05:00:07;;;;;;;83.57;50.83;;;;;;;12.45;76.38;101621.63;5030538;28;20072;-62
2021/10/31 05:02:34;;;;;;;83.50;50.90;;;;;;;12.48;76.29;101624.94;5030146;28;20460;-62
2021/10/31 05:05:00;;;;;;;86.13;50.63;;;;;;;12.48;76.29;101616.19;5030196;28;20051;-62
2021/10/31 05:07:27;;;;;;;78.07;50.25;;;;;;;12.42;76.64;101614.72;5030085;28;20057;-61
2021/10/31 05:09:54;;;;;;;79.20;49.35;;;;;;;12.45;76.56;101609.28;5030029;28;20080;-62
2021/10/31 05:12:22;;;;;;;73.18;48.72;;;;;;;12.46;76.63;101611.00;5030340;28;20049;-62
2021/10/31 05:14:48;;;;;;;82.70;49.40;;;;;;;12.45;76.56;101611.91;5029398;28;20456;-62
2021/10/31 05:17:15;;;;;;;78.18;49.20;;;;;;;12.46;76.62;101607.53;5030139;28;20096;-62
2021/10/31 05:19:41;;;;;;;82.50;49.55;;;;;;;12.40;76.82;101606.91;5029964;28;20053;-62
2021/10/31 05:22:08;;;;;;;78.80;48.33;;;;;;;12.36;76.87;101612.41;5029939;28;20457;-62
2021/10/31 05:24:35;;;;;;;83.25;48.40;;;;;;;12.39;76.74;101612.22;5029667;28;20111;-62
2021/10/31 05:27:02;;;;;;;79.30;47.97;;;;;;;12.45;76.71;101611.91;5030147;28;20102;-62
2021/10/31 05:29:29;;;;;;;83.40;49.88;;;;;;;12.48;76.60;101606.53;5030078;28;20053;-62
2021/10/31 05:31:55;;;;;;;77.72;49.10;;;;;;;12.51;76.33;101621.31;5029681;28;20093;-62
2021/10/31 05:34:22;;;;;;;80.28;49.50;;;;;;;12.48;76.55;101624.94;5029665;28;20567;-62
2021/10/31 05:36:48;;;;;;;83.38;49.35;;;;;;;12.50;76.63;101614.34;5029673;28;20543;-59
2021/10/31 05:39:15;;;;;;;79.63;49.50;;;;;;;12.53;76.39;101619.44;5029587;28;20049;-59
2021/10/31 05:41:42;;;;;;;79.05;49.20;;;;;;;12.53;76.60;101615.03;5028836;28;20057;-59
2021/10/31 05:44:08;;;;;;;79.90;49.75;;;;;;;12.54;76.35;101608.84;5029644;28;20050;-59
2021/10/31 05:46:35;;;;;;;81.22;49.80;;;;;;;12.56;76.64;101608.75;5029487;28;20045;-59
2021/10/31 05:49:02;;;;;;;84.03;50.75;;;;;;;12.56;76.43;101606.13;5029838;28;20055;-59
2021/10/31 05:51:30;;;;;;;80.28;48.72;;;;;;;12.54;76.47;101603.56;5029375;28;20076;-59
2021/10/31 05:53:57;;;;;;;87.30;48.75;;;;;;;12.56;76.37;101608.75;5029393;28;20050;-59
2021/10/31 05:56:23;;;;;;;84.97;48.40;;;;;;;12.51;76.08;101603.72;5029470;28;20448;-59
2021/10/31 05:58:50;;;;;;;77.18;48.78;;;;;;;12.51;76.48;101600.25;5028131;28;20050;-59
2021/10/31 06:01:17;;;;;;;82.47;48.47;;;;;;;12.53;76.50;101598.38;5029226;28;20126;-59
2021/10/31 06:03:44;;;;;;;92.45;50.92;;;;;;;12.50;76.57;101602.00;5029025;28;20049;-59
2021/10/31 06:06:11;;;;;;;82.93;49.67;;;;;;;12.49;76.48;101608.19;5029201;28;20057;-59
2021/10/31 06:08:37;;;;;;;85.22;52.05;;;;;;;12.47;76.45;101610.06;5029110;28;20087;-59
2021/10/31 06:11:05;;;;;;;89.85;52.15;;;;;;;12.46;76.67;101611.00;5027988;28;20099;-59
2021/10/31 06:13:35;;;;;;;85.97;50.75;;;;;;;12.48;76.40;101614.41;5028619;28;20076;-59
2021/10/31 06:16:02;;;;;;;78.30;48.47;;;;;;;12.46;76.69;101620.69;5029635;28;20446;-59
2021/10/31 06:18:30;;;;;;;81.47;48.60;;;;;;;12.46;76.93;101610.16;5029066;28;20049;-59
2021/10/31 06:20:57;;;;;;;85.13;49.47;;;;;;;12.47;76.63;101609.19;5028525;28;20049;-59
2021/10/31 06:23:24;;;;;;;86.43;50.45;;;;;;;12.47;76.89;101625.00;5029182;28;20556;-59
2021/10/31 06:25:50;;;;;;;84.18;49.92;;;;;;;12.49;76.71;101629.25;5028997;28;20057;-59
2021/10/31 06:28:17;;;;;;;75.72;47.22;;;;;;;12.49;76.65;101633.69;5028775;28;20041;-61
2021/10/31 06:30:43;;;;;;;82.97;50.05;;;;;;;12.46;76.80;101633.84;5028276;28;20145;-62
2021/10/31 06:33:10;;;;;;;84.25;50.05;;;;;;;12.46;76.70;101634.69;5029027;28;20053;-62
2021/10/31 06:35:37;;;;;;;88.63;50.08;;;;;;;12.49;76.85;101631.88;5028621;28;20046;-61
2021/10/31 06:38:03;;;;;;;87.80;51.40;;;;;;;12.50;76.74;101630.13;5029024;28;20053;-61
2021/10/31 06:40:30;;;;;;;88.53;50.15;;;;;;;12.50;76.88;101638.03;5028999;28;20548;-61
2021/10/31 06:42:57;;;;;;;80.10;49.80;;;;;;;12.49;76.61;101631.06;5028733;28;20456;-62
2021/10/31 06:45:23;;;;;;;85.45;49.60;;;;;;;12.47;77.05;101639.03;5028727;28;20248;-62
2021/10/31 06:47:50;;;;;;;83.65;49.05;;;;;;;12.49;76.60;101641.59;5028681;28;20414;-62
2021/10/31 06:50:17;;;;;;;82.80;48.75;;;;;;;12.47;76.81;101649.56;5028797;28;20441;-61
2021/10/31 06:52:44;;;;;;;84.30;49.70;;;;;;;12.49;76.80;101655.59;5028729;28;20122;-62
2021/10/31 06:55:11;;;;;;;84.95;50.70;;;;;;;12.46;76.67;101655.75;5028622;28;20091;-62
2021/10/31 06:57:40;;;;;;;78.32;47.22;;;;;;;12.47;76.89;101667.13;5027892;28;20099;-62
2021/10/31 07:00:08;;;;;;;85.03;50.15;;;;;;;12.48;76.75;101669.69;5028853;28;20068;-61
2021/10/31 07:02:35;;;;;;;85.15;50.70;;;;;;;12.47;76.76;101662.72;5028445;28;20580;-62
2021/10/31 07:05:02;;;;;;;82.90;48.03;;;;;;;12.52;76.79;101670.38;5028818;28;20494;-62
2021/10/31 07:07:29;;;;;;;84.55;49.95;;;;;;;12.53;76.82;101674.72;5028756;28;20057;-62
2021/10/31 07:09:56;;;;;;;81.05;48.67;;;;;;;12.54;76.75;101676.44;5029624;28;20042;-62
2021/10/31 07:12:22;;;;;;;81.22;48.17;;;;;;;12.56;76.77;101680.69;5031792;28;20064;-62
2021/10/31 07:14:49;;;;;;;80.47;46.65;;;;;;;12.56;76.72;101685.94;5032480;28;20049;-62
2021/10/31 07:17:15;;;;;;;79.47;47.28;;;;;;;12.56;76.79;101680.69;5032437;28;20049;-62
2021/10/31 07:19:42;;;;;;;80.97;51.17;;;;;;;12.59;76.68;101677.03;5032158;28;20049;-61
2021/10/31 07:22:09;;;;;;;85.82;50.20;;;;;;;12.57;76.72;101684.19;5032040;28;20103;-61
2021/10/31 07:24:35;;;;;;;78.53;48.15;;;;;;;12.53;76.75;101685.25;5031975;28;20107;-62
2021/10/31 07:27:02;;;;;;;77.65;47.42;;;;;;;12.56;76.77;101691.22;5032419;28;20057;-61
2021/10/31 07:29:29;;;;;;;81.55;48.95;;;;;;;12.59;76.76;101690.22;5031779;28;20452;-62
2021/10/31 07:31:57;;;;;;;79.35;47.38;;;;;;;12.61;76.71;101685.72;5032010;28;20148;-62
2021/10/31 07:34:26;;;;;;;82.00;48.83;;;;;;;12.58;76.80;101692.00;5031589;28;20048;-60
2021/10/31 07:36:53;;;;;;;78.47;48.10;;;;;;;12.57;76.63;101687.66;5031768;28;20060;-63
2021/10/31 07:39:20;;;;;;;74.43;46.58;;;;;;;12.61;76.58;101698.03;5030580;28;20049;-60
2021/10/31 07:41:46;;;;;;;76.25;45.97;;;;;;;12.62;76.55;101691.84;5031752;28;20046;-59
2021/10/31 07:44:13;;;;;;;77.03;47.25;;;;;;;12.64;76.46;101680.31;5031865;28;20061;-60
2021/10/31 07:46:40;;;;;;;81.35;49.25;;;;;;;12.66;76.40;101685.47;5031030;28;20107;-61
2021/10/31 07:49:10;;;;;;;83.85;48.63;;;;;;;12.66;76.41;101688.97;5031982;28;20502;-61
2021/10/31 07:51:37;;;;;;;81.15;48.50;;;;;;;12.65;76.47;101691.69;5031540;28;20053;-63
2021/10/31 07:54:04;;;;;;;82.75;49.22;;;;;;;12.69;76.38;101690.63;5031890;28;20041;-59
2021/10/31 07:56:34;;;;;;;77.50;47.75;;;;;;;12.69;76.37;101686.19;5031371;28;20045;-62
2021/10/31 07:59:01;;;;;;;83.60;49.33;;;;;;;12.72;76.34;101685.16;5031454;28;20049;-60
2021/10/31 08:01:27;;;;;;;79.20;48.75;;;;;;;12.79;76.12;101691.84;5030686;28;20555;-61
2021/10/31 08:03:55;;;;;;;75.05;47.45;;;;;;;12.79;76.02;101686.56;5031164;28;20103;-61
2021/10/31 08:06:22;;;;;;;81.25;47.00;;;;;;;12.74;76.28;101681.53;5031291;28;20053;-63
2021/10/31 08:08:50;;;;;;;78.95;47.13;;;;;;;12.82;76.35;101680.31;5031129;28;20045;-61
2021/10/31 08:11:17;;;;;;;72.22;45.78;;;;;;;12.90;75.93;101680.78;5031372;28;20045;-61
2021/10/31 08:13:45;;;;;;;78.07;45.95;;;;;;;12.95;75.65;101677.88;5030896;28;20068;-61
2021/10/31 08:16:12;;;;;;;78.15;48.03;;;;;;;13.02;75.61;101669.56;5030641;28;20046;-62
2021/10/31 08:18:38;;;;;;;72.15;46.47;;;;;;;13.04;75.31;101673.00;5029145;28;20111;-61
2021/10/31 08:21:05;;;;;;;68.25;45.00;;;;;;;12.98;75.70;101667.19;5029920;28;20072;-60
2021/10/31 08:23:32;;;;;;;66.32;42.63;;;;;;;13.05;75.31;101666.81;5030957;28;20046;-61
2021/10/31 08:26:00;;;;;;;71.20;43.92;;;;;;;13.11;75.30;101667.41;5031215;28;20049;-61
2021/10/31 08:28:27;;;;;;;72.88;44.67;;;;;;;13.14;74.95;101661.97;5031155;28;20415;-61
2021/10/31 08:30:57;;;;;;;75.45;45.53;;;;;;;13.23;74.77;101658.88;5030456;28;20482;-61
2021/10/31 08:33:42;;;;;;;71.05;43.50;;;;;;;13.28;74.65;101659.47;5027575;28;20087;-62
2021/10/31 08:36:10;;;;;;;71.47;45.20;;;;;;;13.36;74.32;101656.41;5027609;28;20565;-61
2021/10/31 08:38:36;;;;;;;72.05;45.33;;;;;;;13.43;74.10;101655.16;5029122;28;20115;-61
2021/10/31 08:41:03;;;;;;;74.93;45.28;;;;;;;13.46;74.06;101647.09;5029763;28;20073;-62
2021/10/31 08:43:31;;;;;;;70.28;44.22;;;;;;;13.48;73.88;101655.75;5030300;28;20049;-61
2021/10/31 08:45:59;;;;;;;74.78;44.55;;;;;;;13.45;74.11;101652.47;5030020;28;20557;-62
2021/10/31 08:48:26;;;;;;;76.47;46.10;;;;;;;13.45;74.06;101642.75;5027209;28;20409;-62
2021/10/31 08:50:52;;;;;;;75.38;45.53;;;;;;;13.43;74.29;101643.78;5030278;28;20053;-62
2021/10/31 08:53:26;;;;;;;75.57;46.03;;;;;;;13.39;74.09;101648.38;5030185;28;20100;-62
2021/10/31 08:55:53;;;;;;;76.93;46.45;;;;;;;13.38;74.42;101650.16;5029897;28;20451;-62
2021/10/31 08:58:20;;;;;;;79.78;48.85;;;;;;;13.41;73.93;101643.00;5029989;28;20068;-62
2021/10/31 09:00:47;;;;;;;88.97;50.47;;;;;;;13.51;73.98;101638.94;5024583;28;20507;-62
2021/10/31 09:03:14;;;;;;;88.60;49.78;;;;;;;13.54;73.82;101634.34;5029618;28;20061;-62
2021/10/31 09:05:40;;;;;;;86.63;48.95;;;;;;;13.62;73.74;101633.91;5029427;28;20518;-62
2021/10/31 09:08:09;;;;;;;90.80;48.40;;;;;;;13.81;73.06;101633.75;5027147;28;20045;-63
2021/10/31 09:10:40;;;;;;;93.68;50.17;;;;;;;13.82;72.83;101635.44;5029538;28;20132;-62
2021/10/31 09:13:07;;;;;;;90.40;48.15;;;;;;;13.82;73.19;101631.97;5030061;28;20048;-63
2021/10/31 09:15:34;;;;;;;91.82;49.97;;;;;;;13.80;72.92;101629.44;5029059;28;20448;-62
2021/10/31 09:18:03;;;;;;;91.28;51.03;;;;;;;13.80;72.88;101618.00;5029344;28;20490;-62
2021/10/31 09:20:32;;;;;;;95.38;53.33;;;;;;;13.85;72.83;101626.50;5029698;28;20038;-62
2021/10/31 09:23:02;;;;;;;105.88;55.42;;;;;;;13.87;72.88;101625.47;5029277;28;20064;-64
2021/10/31 09:25:29;;;;;;;107.13;55.88;;;;;;;13.91;72.37;101625.31;5029602;28;20076;-65
2021/10/31 09:27:57;;;;;;;106.47;56.28;;;;;;;14.03;72.00;101619.34;5029049;28;20057;-63
2021/10/31 09:30:28;;;;;;;100.07;53.10;;;;;;;14.27;71.66;101621.50;5029576;28;20042;-64
2021/10/31 09:32:56;;;;;;;134.38;62.92;;;;;;;14.21;71.75;101618.28;5028302;28;20045;-62
2021/10/31 09:35:26;;;;;;;116.90;60.45;;;;;;;14.20;71.62;101615.72;5029363;28;20551;-62
2021/10/31 09:37:58;;;;;;;107.45;57.97;;;;;;;14.16;71.66;101616.84;5029575;28;20107;-61
2021/10/31 09:40:26;;;;;;;105.97;56.67;;;;;;;14.19;71.46;101617.53;5029480;28;20046;-64
2021/10/31 09:42:54;;;;;;;94.55;52.17;;;;;;;14.14;71.95;101610.81;5029833;28;20084;-61
2021/10/31 09:45:23;;;;;;;106.55;55.67;;;;;;;14.04;72.18;101615.75;5029489;28;20045;-61
2021/10/31 09:48:02;;;;;;;92.15;54.17;;;;;;;13.99;72.02;101605.47;5029378;28;20504;-61
2021/10/31 09:50:32;;;;;;;97.05;54.72;;;;;;;14.11;71.83;101603.06;5029340;28;20103;-61
2021/10/31 09:53:00;;;;;;;87.85;51.67;;;;;;;14.08;71.81;101606.75;5029546;28;20486;-61
2021/10/31 09:55:28;;;;;;;93.32;52.55;;;;;;;14.14;71.60;101606.38;5029454;28;20046;-64
2021/10/31 09:57:55;;;;;;;91.43;52.28;;;;;;;14.20;71.65;101606.00;5029163;28;20045;-62
2021/10/31 10:00:38;;;;;;;88.45;51.83;;;;;;;14.21;71.52;101602.44;5029310;28;20057;-62
2021/10/31 10:03:22;;;;;;;91.40;53.80;;;;;;;14.25;71.45;101589.91;5028837;28;20085;-62
2021/10/31 10:06:06;;;;;;;86.47;51.05;;;;;;;14.31;71.37;101596.63;5028534;28;20107;-63
2021/10/31 10:08:32;;;;;;;83.07;51.03;;;;;;;14.40;70.90;101588.16;5029123;28;20461;-61
2021/10/31 10:11:01;;;;;;;86.07;50.85;;;;;;;14.59;70.57;101579.13;5029128;28;20132;-61
2021/10/31 10:13:31;;;;;;;88.18;50.45;;;;;;;14.84;70.00;101587.31;5029331;28;20045;-63
2021/10/31 10:16:23;;;;;;;94.75;53.88;;;;;;;14.92;69.30;101589.47;5029223;28;20050;-61
2021/10/31 10:18:50;;;;;;;90.20;51.45;;;;;;;14.90;69.50;101593.16;5029006;28;20048;-62
2021/10/31 10:21:22;;;;;;;96.20;54.53;;;;;;;14.80;69.72;101588.41;5028691;28;20038;-61
2021/10/31 10:23:55;;;;;;;94.57;54.35;;;;;;;14.94;69.45;101582.28;5027930;28;20413;-61
2021/10/31 10:26:36;;;;;;;95.57;52.17;;;;;;;14.94;69.19;101571.72;5028586;28;20058;-62
2021/10/31 10:29:13;;;;;;;92.40;53.63;;;;;;;15.03;68.71;101567.66;5029139;28;20046;-62
2021/10/31 10:31:42;;;;;;;95.78;52.65;;;;;;;15.44;67.70;101565.97;5028872;28;20478;-62
2021/10/31 10:34:11;;;;;;;95.07;52.13;;;;;;;15.74;66.76;101557.03;5028019;28;20049;-67
2021/10/31 10:36:44;;;;;;;91.13;52.13;;;;;;;15.77;66.64;101555.03;5008716;28;20056;-64
2021/10/31 10:39:16;;;;;;;86.38;51.60;;;;;;;15.93;66.21;101556.69;5009011;28;20046;-64
2021/10/31 10:41:52;;;;;;;82.22;49.90;;;;;;;16.21;65.41;101545.09;5018412;28;20045;-62
2021/10/31 10:44:31;;;;;;;91.80;54.88;;;;;;;16.25;65.37;101540.44;5028788;28;20053;-62
2021/10/31 10:47:08;;;;;;;95.68;56.40;;;;;;;16.17;65.65;101540.97;5032727;28;20115;-62
2021/10/31 10:49:38;;;;;;;84.85;50.60;;;;;;;16.11;66.12;101534.28;5029892;28;20103;-63
2021/10/31 10:52:26;;;;;;;80.15;48.70;;;;;;;16.17;65.78;101535.66;5032235;28;20045;-63
2021/10/31 10:55:02;;;;;;;83.63;50.15;;;;;;;16.57;64.75;101526.78;5029516;28;20049;-62
2021/10/31 10:57:33;;;;;;;83.07;50.17;;;;;;;17.27;62.79;101531.56;5032778;28;20087;-62
2021/10/31 11:00:09;;;;;;;76.90;48.35;;;;;;;17.18;62.89;101534.03;5032679;28;20068;-62
2021/10/31 11:02:37;;;;;;;79.57;48.25;;;;;;;17.48;62.49;101520.31;5032471;28;20053;-63
2021/10/31 11:05:09;;;;;;;98.45;67.18;;;;;;;17.09;63.52;101509.88;5032066;28;20049;-63
2021/10/31 11:07:40;;;;;;;84.82;55.42;;;;;;;16.77;64.43;101506.81;5032595;28;20452;-63
2021/10/31 11:10:12;;;;;;;77.30;48.78;;;;;;;16.62;64.92;101500.78;5031915;28;20049;-62
2021/10/31 11:12:40;;;;;;;111.68;75.20;;;;;;;16.73;64.57;101500.06;5032227;28;20049;-63
2021/10/31 11:15:19;;;;;;;81.97;52.00;;;;;;;16.68;64.29;101497.72;5032120;28;20489;-62
2021/10/31 11:17:48;;;;;;;77.75;51.53;;;;;;;16.73;64.36;101498.25;5031497;28;20096;-65
2021/10/31 11:20:20;;;;;;;73.15;46.67;;;;;;;16.77;64.22;101491.78;5031876;28;20053;-62